Time;durP1;ratioP1;P1;durP2;ratioP2;P2;SDS_P1;SDS_P2;PMS_P1;PMS_P2;Temp;Humidity;BMP_temperature;BMP_pressure;BME280_temperature;BME280_humidity;BME280_pressure;Samples;Min_cycle;Max_cycle;Signal;HPM_P1;HPM_P2
2020/12/17 00:00:58;;;;;;;31.30;19.10;;;;;;;4.20;96.82;101452.06;4933362;28;20051;-50
2020/12/17 00:03:30;;;;;;;33.33;20.00;;;;;;;4.21;96.81;101449.63;4936712;28;20130;-53
2020/12/17 00:06:08;;;;;;;35.72;19.95;;;;;;;4.05;96.84;101444.34;4937763;28;20339;-49
2020/12/17 00:08:34;;;;;;;30.77;17.60;;;;;;;4.34;96.22;101446.19;4935264;28;20417;-49
2020/12/17 00:11:01;;;;;;;32.28;18.65;;;;;;;4.36;95.11;101439.56;4937898;28;20067;-49
2020/12/17 00:13:28;;;;;;;35.22;19.08;;;;;;;4.18;95.75;101441.81;4937684;28;20059;-53
2020/12/17 00:15:55;;;;;;;33.45;18.92;;;;;;;4.08;95.69;101439.50;4937058;28;20043;-53
2020/12/17 00:18:22;;;;;;;31.90;19.08;;;;;;;4.48;95.66;101447.06;4937648;28;20106;-52
2020/12/17 00:20:48;;;;;;;28.90;17.48;;;;;;;4.39;95.47;101441.41;4936418;28;20118;-49
2020/12/17 00:23:15;;;;;;;33.45;19.25;;;;;;;4.03;95.93;101426.53;4938447;28;20070;-49
2020/12/17 00:25:41;;;;;;;31.02;18.52;;;;;;;4.06;97.64;101431.78;4936544;28;20498;-51
2020/12/17 00:28:08;;;;;;;30.40;18.40;;;;;;;4.52;96.27;101436.31;4938272;28;20573;-47
2020/12/17 00:30:34;;;;;;;33.83;18.90;;;;;;;4.59;94.44;101441.88;4936004;28;20055;-55
2020/12/17 00:33:01;;;;;;;35.13;20.05;;;;;;;3.98;96.58;101437.16;4936865;28;20047;-51
2020/12/17 00:35:27;;;;;;;32.78;19.90;;;;;;;4.27;96.18;101436.47;4936876;28;20063;-53
2020/12/17 00:37:54;;;;;;;32.17;18.42;;;;;;;4.40;95.48;101433.91;4935549;28;20119;-50
2020/12/17 00:40:21;;;;;;;32.30;19.20;;;;;;;4.53;94.43;101433.91;4937480;28;20055;-52
2020/12/17 00:42:47;;;;;;;33.90;19.02;;;;;;;4.34;94.56;101431.88;4935777;28;20054;-51
2020/12/17 00:45:15;;;;;;;31.33;19.00;;;;;;;4.07;96.58;101432.69;4937851;28;20110;-49
2020/12/17 00:47:42;;;;;;;31.20;18.48;;;;;;;4.54;94.45;101439.84;4931139;28;20063;-48
2020/12/17 00:50:10;;;;;;;33.80;19.55;;;;;;;4.48;93.68;101432.72;4937929;28;20500;-51
2020/12/17 00:52:40;;;;;;;35.72;18.85;;;;;;;3.92;96.64;101427.50;4935557;28;20106;-48
2020/12/17 00:55:07;;;;;;;31.65;18.58;;;;;;;4.22;96.84;101423.50;4937725;28;20055;-47
2020/12/17 00:57:33;;;;;;;31.70;18.27;;;;;;;4.33;94.50;101427.56;4934496;28;20134;-50
2020/12/17 01:00:00;;;;;;;32.58;18.33;;;;;;;4.36;94.20;101418.41;4936934;28;20062;-52
2020/12/17 01:02:26;;;;;;;32.20;18.35;;;;;;;4.12;95.32;101422.84;4936307;28;20047;-51
2020/12/17 01:04:53;;;;;;;34.03;19.45;;;;;;;4.29;95.02;101418.03;4935741;28;20114;-47
2020/12/17 01:07:20;;;;;;;28.23;16.92;;;;;;;4.37;94.64;101422.69;4936949;28;20061;-54
2020/12/17 01:09:47;;;;;;;31.38;18.63;;;;;;;4.39;94.14;101419.50;4936124;28;20103;-50
2020/12/17 01:12:14;;;;;;;29.35;17.30;;;;;;;4.76;91.94;101429.34;4937463;28;20051;-49
2020/12/17 01:14:41;;;;;;;31.63;18.08;;;;;;;4.72;92.14;101430.84;4930579;28;20052;-50
2020/12/17 01:17:08;;;;;;;31.88;18.40;;;;;;;4.23;94.23;101431.97;4937047;28;20458;-49
2020/12/17 01:19:35;;;;;;;28.00;17.70;;;;;;;4.62;93.34;101431.03;4935194;28;20044;-52
2020/12/17 01:22:02;;;;;;;28.52;17.92;;;;;;;4.71;92.92;101433.25;4936582;28;20048;-49
2020/12/17 01:24:29;;;;;;;31.08;18.42;;;;;;;4.65;92.19;101423.63;4936241;28;20466;-49
2020/12/17 01:26:56;;;;;;;31.17;17.73;;;;;;;4.40;94.55;101417.84;4935694;28;20044;-53
2020/12/17 01:29:23;;;;;;;29.63;18.42;;;;;;;4.71;91.34;101416.38;4936505;28;20461;-52
2020/12/17 01:31:50;;;;;;;29.27;18.08;;;;;;;4.66;92.04;101417.75;4935305;28;20518;-51
2020/12/17 01:34:17;;;;;;;29.77;17.70;;;;;;;4.75;91.55;101413.25;4933399;28;20051;-52
2020/12/17 01:36:43;;;;;;;32.78;18.38;;;;;;;4.44;92.76;101405.44;4934798;28;20055;-51
2020/12/17 01:39:10;;;;;;;33.45;18.20;;;;;;;4.53;92.15;101415.25;4937348;28;20044;-48
2020/12/17 01:41:36;;;;;;;31.10;18.08;;;;;;;4.24;94.31;101411.78;4935183;28;20521;-52
2020/12/17 01:44:03;;;;;;;30.90;18.45;;;;;;;4.28;93.93;101413.72;4936157;28;20043;-51
2020/12/17 01:46:30;;;;;;;27.40;17.45;;;;;;;4.67;91.97;101400.88;4934571;28;20076;-49
2020/12/17 01:49:03;;;;;;;30.25;18.10;;;;;;;4.26;94.86;101395.03;4936089;28;20115;-55
2020/12/17 01:51:29;;;;;;;30.15;18.05;;;;;;;4.35;93.68;101404.88;4935522;28;20048;-54
2020/12/17 01:53:56;;;;;;;29.88;17.75;;;;;;;4.19;93.28;101402.16;4935792;28;20112;-50
2020/12/17 01:56:24;;;;;;;29.83;18.20;;;;;;;4.63;92.43;101398.97;4935878;28;20051;-46
2020/12/17 01:59:04;;;;;;;33.88;17.90;;;;;;;4.75;91.53;101403.09;4934254;28;20067;-49
2020/12/17 02:01:31;;;;;;;31.67;17.75;;;;;;;4.62;91.23;101399.72;4934621;28;20044;-50
2020/12/17 02:04:02;;;;;;;31.05;18.10;;;;;;;4.51;91.39;101397.41;4935881;28;20447;-56
2020/12/17 02:06:29;;;;;;;28.95;17.92;;;;;;;4.29;92.32;101395.19;4935099;28;20079;-48
2020/12/17 02:08:55;;;;;;;30.33;18.20;;;;;;;4.46;92.49;101387.78;4935040;28;20514;-50
2020/12/17 02:11:21;;;;;;;30.98;18.27;;;;;;;4.54;92.55;101396.72;4935907;28;20055;-52
2020/12/17 02:13:48;;;;;;;32.38;17.98;;;;;;;4.65;91.22;101382.16;4934495;28;20059;-55
2020/12/17 02:16:15;;;;;;;28.52;18.10;;;;;;;4.34;92.20;101387.88;4936612;28;20506;-50
2020/12/17 02:18:43;;;;;;;32.30;18.50;;;;;;;4.52;91.46;101381.41;4929944;28;20044;-51
2020/12/17 02:21:09;;;;;;;29.77;17.83;;;;;;;4.72;89.96;101381.75;4936593;28;20048;-54
2020/12/17 02:23:37;;;;;;;29.00;17.73;;;;;;;4.40;91.63;101373.06;4934339;28;20052;-52
2020/12/17 02:26:05;;;;;;;33.60;18.75;;;;;;;3.93;94.38;101375.16;4935914;28;20518;-53
2020/12/17 02:28:33;;;;;;;32.00;18.67;;;;;;;4.58;91.09;101370.78;4934325;28;20119;-49
2020/12/17 02:31:00;;;;;;;29.55;17.45;;;;;;;4.34;91.39;101360.91;4936210;28;20052;-51
2020/12/17 02:33:26;;;;;;;29.90;18.23;;;;;;;4.21;91.69;101355.84;4935258;28;20568;-48
2020/12/17 02:35:53;;;;;;;36.00;20.60;;;;;;;4.03;92.74;101350.50;4934643;28;20044;-53
2020/12/17 02:38:21;;;;;;;30.17;18.30;;;;;;;3.91;93.11;101349.72;4935806;28;20043;-50
2020/12/17 02:40:47;;;;;;;30.52;18.77;;;;;;;4.05;91.74;101350.59;4934402;28;20087;-51
2020/12/17 02:43:13;;;;;;;32.65;19.08;;;;;;;3.97;91.95;101352.63;4936389;28;20047;-50
2020/12/17 02:45:47;;;;;;;35.25;19.02;;;;;;;4.15;91.40;101350.38;4934462;28;20462;-50
2020/12/17 02:48:15;;;;;;;30.77;18.10;;;;;;;4.04;91.81;101349.72;4935857;28;20051;-51
2020/12/17 02:50:41;;;;;;;31.25;18.27;;;;;;;3.95;91.41;101341.53;4929496;28;20103;-51
2020/12/17 02:53:08;;;;;;;33.47;18.90;;;;;;;4.05;91.44;101355.66;4936164;28;20052;-51
2020/12/17 02:55:36;;;;;;;30.67;18.75;;;;;;;3.86;92.57;101355.28;4934252;28;20055;-48
2020/12/17 02:58:03;;;;;;;34.15;20.00;;;;;;;3.81;92.48;101362.59;4938638;28;20506;-53
2020/12/17 03:00:30;;;;;;;32.78;18.55;;;;;;;3.83;92.21;101366.09;4938572;28;20466;-53
2020/12/17 03:02:56;;;;;;;35.60;18.55;;;;;;;4.01;91.88;101374.84;4938469;28;20098;-52
2020/12/17 03:05:22;;;;;;;32.75;19.10;;;;;;;3.64;93.24;101366.59;4939113;28;20469;-49
2020/12/17 03:07:49;;;;;;;33.78;19.15;;;;;;;3.75;92.66;101373.22;4937512;28;20048;-54
2020/12/17 03:10:16;;;;;;;32.10;19.83;;;;;;;3.85;91.96;101383.94;4935487;28;20055;-50
2020/12/17 03:12:43;;;;;;;34.97;19.38;;;;;;;3.61;93.04;101381.59;4937818;28;20095;-48
2020/12/17 03:15:11;;;;;;;36.05;18.63;;;;;;;3.57;92.91;101382.19;4940051;28;20043;-47
2020/12/17 03:17:38;;;;;;;30.42;18.85;;;;;;;3.58;93.01;101379.72;4937395;28;20099;-46
2020/12/17 03:20:09;;;;;;;31.20;18.08;;;;;;;3.54;94.03;101377.78;4939353;28;20048;-50
2020/12/17 03:22:36;;;;;;;30.23;17.92;;;;;;;3.62;93.09;101380.81;4936880;28;20052;-52
2020/12/17 03:25:06;;;;;;;34.92;19.27;;;;;;;3.58;92.91;101379.72;4939044;28;20474;-54
2020/12/17 03:27:35;;;;;;;33.50;19.40;;;;;;;3.11;95.83;101378.28;4936969;28;20111;-48
2020/12/17 03:30:04;;;;;;;38.50;20.30;;;;;;;3.53;93.79;101380.22;4938767;28;20502;-47
2020/12/17 03:32:32;;;;;;;35.97;19.25;;;;;;;3.29;94.88;101377.84;4937192;28;20106;-50
2020/12/17 03:34:58;;;;;;;36.15;19.38;;;;;;;3.32;94.24;101378.03;4938494;28;20311;-48
2020/12/17 03:37:25;;;;;;;34.08;19.40;;;;;;;3.40;93.87;101377.66;4937907;28;20121;-48
2020/12/17 03:39:51;;;;;;;36.22;19.58;;;;;;;3.17;94.70;101382.09;4937089;28;20106;-51
2020/12/17 03:42:18;;;;;;;35.28;19.98;;;;;;;3.27;94.35;101389.50;4938660;28;20460;-52
2020/12/17 03:44:45;;;;;;;34.35;19.27;;;;;;;3.44;94.62;101387.22;4937154;28;20051;-48
2020/12/17 03:47:12;;;;;;;33.78;19.40;;;;;;;3.50;94.02;101387.59;4938028;28;20051;-50
2020/12/17 03:49:38;;;;;;;36.35;20.23;;;;;;;3.22;94.40;101389.97;4936451;28;20497;-50
2020/12/17 03:52:05;;;;;;;35.13;20.30;;;;;;;2.76;96.45;101386.91;4938806;28;20103;-50
2020/12/17 03:54:31;;;;;;;38.42;20.38;;;;;;;2.84;96.29;101388.28;4936889;28;20475;-50
2020/12/17 03:56:58;;;;;;;38.78;20.35;;;;;;;2.84;96.96;101382.38;4938016;28;20048;-49
2020/12/17 03:59:24;;;;;;;35.35;21.00;;;;;;;2.60;97.70;101376.53;4938173;28;20536;-48
2020/12/17 04:01:50;;;;;;;38.92;21.58;;;;;;;2.87;97.39;101367.41;4936870;28;20561;-47
2020/12/17 04:04:17;;;;;;;35.78;19.42;;;;;;;2.83;98.04;101365.44;4934806;28;20058;-47
2020/12/17 04:06:44;;;;;;;39.13;21.80;;;;;;;2.58;97.69;101367.94;4936817;28;20091;-50
2020/12/17 04:09:10;;;;;;;42.53;21.75;;;;;;;2.38;98.76;101367.44;4937683;28;20466;-50
2020/12/17 04:11:36;;;;;;;41.15;21.13;;;;;;;2.58;98.81;101373.00;4936447;28;20075;-49
2020/12/17 04:14:03;;;;;;;40.40;21.83;;;;;;;2.59;99.37;101369.69;4938122;28;20255;-46
2020/12/17 04:16:29;;;;;;;41.95;22.20;;;;;;;2.28;98.71;101362.53;4936951;28;20055;-50
2020/12/17 04:18:56;;;;;;;39.72;20.65;;;;;;;2.66;97.88;101362.63;4936790;28;20051;-49
2020/12/17 04:21:22;;;;;;;41.40;22.10;;;;;;;2.52;97.52;101366.75;4937733;28;20101;-50
2020/12/17 04:23:48;;;;;;;40.75;21.20;;;;;;;2.19;99.28;101357.72;4936160;28;20051;-50
2020/12/17 04:26:15;;;;;;;41.92;22.48;;;;;;;2.13;100.00;101362.34;4938101;28;20090;-47
2020/12/17 04:28:42;;;;;;;46.25;22.95;;;;;;;2.09;100.00;101350.28;4931487;28;20051;-48
2020/12/17 04:31:08;;;;;;;43.97;22.02;;;;;;;2.26;100.00;101347.25;4938041;28;20422;-46
2020/12/17 04:33:35;;;;;;;41.55;21.10;;;;;;;2.46;98.80;101347.78;4935888;28;20051;-51
2020/12/17 04:36:02;;;;;;;41.65;21.40;;;;;;;2.28;99.64;101348.25;4937593;28;20051;-49
2020/12/17 04:38:28;;;;;;;43.40;23.55;;;;;;;2.15;99.42;101348.16;4937262;28;20107;-50
2020/12/17 04:40:55;;;;;;;40.50;20.65;;;;;;;2.22;100.00;101352.88;4936484;28;20457;-49
2020/12/17 04:43:21;;;;;;;44.75;22.67;;;;;;;2.25;99.20;101348.03;4936981;28;20059;-52
2020/12/17 04:45:49;;;;;;;40.15;20.80;;;;;;;2.53;98.31;101355.84;4936303;28;20056;-50
2020/12/17 04:48:17;;;;;;;41.85;22.15;;;;;;;2.66;96.75;101357.56;4937710;28;20588;-49
2020/12/17 04:50:45;;;;;;;38.50;20.30;;;;;;;2.35;97.78;101364.69;4935809;28;20090;-53
2020/12/17 04:53:15;;;;;;;45.10;21.55;;;;;;;2.36;97.85;101370.63;4938262;28;20047;-50
2020/12/17 04:55:42;;;;;;;38.00;20.95;;;;;;;2.82;95.75;101369.63;4931640;28;20565;-51
2020/12/17 04:58:10;;;;;;;42.85;21.55;;;;;;;2.39;96.50;101368.31;4937879;28;20087;-46
2020/12/17 05:00:40;;;;;;;42.75;22.05;;;;;;;2.43;97.19;101361.06;4935753;28;20055;-52
2020/12/17 05:03:12;;;;;;;41.22;23.30;;;;;;;2.21;99.00;101365.41;4936735;28;20075;-51
2020/12/17 05:05:40;;;;;;;43.70;22.83;;;;;;;2.49;97.34;101358.94;4936392;28;20413;-49
2020/12/17 05:08:07;;;;;;;40.65;21.75;;;;;;;2.12;98.27;101357.16;4936684;28;20052;-52
2020/12/17 05:10:34;;;;;;;42.60;22.10;;;;;;;2.19;98.90;101366.94;4934925;28;20056;-49
2020/12/17 05:13:00;;;;;;;42.22;21.17;;;;;;;2.34;97.95;101359.56;4937625;28;20048;-50
2020/12/17 05:15:27;;;;;;;40.30;21.20;;;;;;;2.33;97.29;101360.34;4935990;28;20054;-53
2020/12/17 05:17:54;;;;;;;42.38;21.90;;;;;;;2.66;97.09;101361.75;4930110;29;20126;-51
2020/12/17 05:20:20;;;;;;;43.95;21.73;;;;;;;2.52;96.23;101360.81;4935026;28;20122;-54
2020/12/17 05:22:47;;;;;;;44.53;22.80;;;;;;;2.51;96.84;101366.66;4932484;28;20168;-51
2020/12/17 05:25:16;;;;;;;43.05;23.02;;;;;;;2.20;97.35;101358.59;4928392;28;20130;-52
2020/12/17 05:27:44;;;;;;;42.90;21.77;;;;;;;2.15;98.30;101365.84;4925957;29;20063;-52
2020/12/17 05:30:10;;;;;;;37.60;20.38;;;;;;;2.44;97.04;101359.41;4930468;29;20111;-50
2020/12/17 05:32:43;;;;;;;39.05;21.50;;;;;;;2.52;96.38;101364.22;4930392;29;20040;-53
2020/12/17 05:35:16;;;;;;;42.13;21.20;;;;;;;2.36;96.83;101363.94;4932918;28;20129;-50
2020/12/17 05:37:44;;;;;;;40.10;21.17;;;;;;;2.18;97.73;101355.09;4929961;28;20071;-47
2020/12/17 05:40:12;;;;;;;43.03;22.48;;;;;;;2.06;98.29;101352.56;4935193;28;20105;-52
2020/12/17 05:42:39;;;;;;;39.70;21.75;;;;;;;1.83;99.19;101363.56;4934973;28;20123;-53
2020/12/17 05:45:24;;;;;;;44.78;22.27;;;;;;;1.94;99.24;101369.38;4936299;28;20302;-43
2020/12/17 05:48:14;;;;;;;44.17;21.88;;;;;;;2.04;98.55;101375.22;4930950;28;20058;-52
2020/12/17 05:50:52;;;;;;;44.63;23.30;;;;;;;1.81;99.70;101369.31;4934946;28;20051;-46
2020/12/17 05:53:20;;;;;;;45.47;23.02;;;;;;;1.60;100.00;101366.09;4932788;28;20062;-49
2020/12/17 05:55:50;;;;;;;51.33;24.13;;;;;;;1.62;100.00;101373.03;4936732;28;20055;-45
2020/12/17 05:58:18;;;;;;;43.78;22.50;;;;;;;1.91;100.00;101374.22;4932446;28;20102;-48
2020/12/17 06:00:48;;;;;;;45.13;22.60;;;;;;;1.82;99.19;101376.97;4933644;28;20048;-46
2020/12/17 06:03:26;;;;;;;45.97;23.35;;;;;;;1.58;100.00;101375.22;4934074;28;20145;-47
2020/12/17 06:06:14;;;;;;;42.88;22.05;;;;;;;1.81;100.00;101377.75;4929645;28;20402;-44
2020/12/17 06:08:51;;;;;;;46.35;23.58;;;;;;;1.45;100.00;101374.31;4930537;28;20050;-43
2020/12/17 06:11:30;;;;;;;44.55;22.58;;;;;;;1.95;99.96;101373.69;4933165;28;20333;-46
2020/12/17 06:14:06;;;;;;;35.10;18.88;;;;;;;1.83;99.56;101373.66;4936652;28;20035;-46
2020/12/17 06:16:36;;;;;;;44.20;24.70;;;;;;;1.95;98.42;101383.78;4933453;28;20498;-47
2020/12/17 06:19:03;;;;;;;36.92;21.38;;;;;;;2.01;98.28;101384.22;4936074;28;20538;-47
2020/12/17 06:21:46;;;;;;;43.85;22.17;;;;;;;1.66;100.00;101377.50;4935310;28;20056;-43
2020/12/17 06:24:29;;;;;;;42.20;22.23;;;;;;;2.28;98.18;101386.16;4936514;28;20051;-44
2020/12/17 06:27:09;;;;;;;41.38;20.63;;;;;;;2.30;97.57;101389.66;4932146;28;20054;-43
2020/12/17 06:29:49;;;;;;;44.97;21.52;;;;;;;1.71;98.09;101377.84;4933149;28;20035;-46
2020/12/17 06:32:20;;;;;;;43.60;22.52;;;;;;;1.48;100.00;101373.69;4938217;28;20055;-49
2020/12/17 06:34:50;;;;;;;50.13;23.08;;;;;;;1.54;100.00;101374.09;4933688;28;20052;-45
2020/12/17 06:37:17;;;;;;;46.95;24.95;;;;;;;1.82;100.00;101376.09;4935160;28;20047;-47
2020/12/17 06:39:50;;;;;;;48.50;24.58;;;;;;;1.39;100.00;101370.47;4938479;28;20566;-48
2020/12/17 06:42:32;;;;;;;44.88;23.63;;;;;;;1.54;100.00;101369.06;4935923;28;20474;-46
2020/12/17 06:44:58;;;;;;;51.40;24.73;;;;;;;1.31;100.00;101371.56;4939011;28;20043;-44
2020/12/17 06:47:29;;;;;;;47.70;23.55;;;;;;;1.59;100.00;101362.69;4937337;28;20051;-44
2020/12/17 06:50:28;;;;;;;52.17;25.67;;;;;;;1.26;100.00;101371.22;4938501;28;20138;-49
2020/12/17 06:53:08;;;;;;;51.05;25.15;;;;;;;1.54;100.00;101356.44;4935362;28;20044;-48
2020/12/17 06:55:46;;;;;;;53.67;23.60;;;;;;;1.47;100.00;101342.47;4937090;28;20052;-46
2020/12/17 06:58:18;;;;;;;50.97;25.40;;;;;;;1.93;99.42;101355.88;4940447;28;20419;-44
2020/12/17 07:00:45;;;;;;;44.78;23.38;;;;;;;1.64;100.00;101355.47;4933992;28;20126;-44
2020/12/17 07:03:48;;;;;;;46.97;24.20;;;;;;;1.86;99.83;101365.44;4940111;28;20043;-50
2020/12/17 07:06:23;;;;;;;45.38;23.38;;;;;;;1.75;99.10;101355.44;4938443;28;20054;-44
2020/12/17 07:08:54;;;;;;;48.22;23.75;;;;;;;1.75;99.95;101368.06;4934261;28;20114;-51
2020/12/17 07:11:46;;;;;;;50.03;23.92;;;;;;;1.79;99.23;101372.56;4936127;28;20094;-45
2020/12/17 07:14:18;;;;;;;48.50;23.30;;;;;;;1.64;99.09;101366.44;4939916;28;20071;-47
2020/12/17 07:16:57;;;;;;;48.28;23.95;;;;;;;1.92;98.46;101376.84;4933461;28;20055;-45
2020/12/17 07:19:27;;;;;;;54.45;25.83;;;;;;;1.81;97.78;101362.59;4936599;28;20538;-51
2020/12/17 07:22:00;;;;;;;47.38;24.67;;;;;;;1.76;99.00;101381.59;4937604;28;20044;-46
2020/12/17 07:24:37;;;;;;;46.47;22.83;;;;;;;1.85;97.83;101376.28;4938206;28;20043;-50
2020/12/17 07:27:09;;;;;;;53.53;25.25;;;;;;;1.35;100.00;101376.94;4938937;28;20070;-45
2020/12/17 07:29:39;;;;;;;52.60;24.70;;;;;;;1.44;100.00;101379.25;4936843;28;20047;-48
2020/12/17 07:32:27;;;;;;;52.47;24.40;;;;;;;1.61;100.00;101375.41;4939298;28;20051;-44
2020/12/17 07:35:06;;;;;;;50.90;25.27;;;;;;;1.90;99.76;101375.00;4935567;28;20048;-47
2020/12/17 07:37:54;;;;;;;48.97;24.30;;;;;;;1.97;98.17;101370.47;4935931;28;20039;-44
2020/12/17 07:40:30;;;;;;;44.35;23.58;;;;;;;2.06;98.09;101370.25;4935630;28;20051;-46
2020/12/17 07:43:06;;;;;;;48.95;24.25;;;;;;;1.92;98.14;101364.22;4937773;28;20051;-45
2020/12/17 07:45:46;;;;;;;47.03;23.30;;;;;;;2.15;97.79;101364.97;4936352;28;20051;-45
2020/12/17 07:48:51;;;;;;;46.83;24.50;;;;;;;2.07;97.46;101359.38;4937023;28;20058;-45
2020/12/17 07:51:23;;;;;;;42.90;22.38;;;;;;;1.95;97.39;101363.56;4934592;28;20055;-46
2020/12/17 07:53:51;;;;;;;44.13;22.02;;;;;;;2.28;96.78;101368.47;4937012;28;20763;-48
2020/12/17 07:56:23;;;;;;;48.95;23.83;;;;;;;2.30;95.89;101371.09;4934891;28;20051;-48
2020/12/17 07:58:51;;;;;;;47.33;22.63;;;;;;;2.27;95.95;101370.91;4936967;28;20056;-48
2020/12/17 08:01:18;;;;;;;44.85;21.58;;;;;;;2.13;96.81;101380.03;4936192;28;20054;-48
2020/12/17 08:03:53;;;;;;;45.42;22.50;;;;;;;2.49;95.27;101370.72;4936693;28;20061;-47
2020/12/17 08:06:24;;;;;;;46.15;23.15;;;;;;;2.64;94.96;101378.50;4934878;28;20510;-47
2020/12/17 08:08:59;;;;;;;42.03;22.00;;;;;;;2.74;94.49;101380.88;4936795;28;20466;-48
2020/12/17 08:11:40;;;;;;;44.25;22.52;;;;;;;2.86;93.24;101381.69;4936236;28;20535;-45
2020/12/17 08:14:21;;;;;;;41.95;21.25;;;;;;;3.14;91.92;101378.47;4938168;28;20059;-45
2020/12/17 08:16:53;;;;;;;42.33;21.83;;;;;;;2.89;91.92;101386.06;4933211;28;20056;-47
2020/12/17 08:19:19;;;;;;;41.40;22.30;;;;;;;2.99;92.15;101370.75;4934424;28;20047;-49
2020/12/17 08:21:46;;;;;;;41.78;20.50;;;;;;;3.29;90.56;101374.44;4936597;28;20423;-47
2020/12/17 08:24:13;;;;;;;42.83;21.10;;;;;;;3.38;91.07;101376.69;4938888;28;20482;-48
2020/12/17 08:26:39;;;;;;;41.28;21.50;;;;;;;3.62;89.52;101377.41;4936495;28;20051;-48
2020/12/17 08:29:06;;;;;;;39.70;20.95;;;;;;;3.56;89.94;101371.19;4937510;28;20543;-46
2020/12/17 08:31:32;;;;;;;40.35;20.05;;;;;;;3.62;90.00;101370.69;4936596;28;20048;-46
2020/12/17 08:34:00;;;;;;;41.30;21.13;;;;;;;3.57;89.42;101366.97;4937833;28;20052;-47
2020/12/17 08:36:29;;;;;;;39.13;20.55;;;;;;;3.67;89.83;101365.91;4936942;28;20458;-45
2020/12/17 08:39:04;;;;;;;40.03;20.73;;;;;;;3.62;88.63;101363.09;4936663;28;20048;-46
2020/12/17 08:41:54;;;;;;;43.58;22.55;;;;;;;3.72;89.11;101367.09;4932160;28;20071;-47
2020/12/17 08:44:26;;;;;;;36.15;20.50;;;;;;;3.93;88.26;101363.38;4934535;28;20078;-47
2020/12/17 08:46:59;;;;;;;39.95;20.25;;;;;;;3.72;87.73;101359.50;4935717;28;20051;-45
2020/12/17 08:49:28;;;;;;;41.28;19.60;;;;;;;3.97;87.73;101355.19;4936843;28;20047;-44
2020/12/17 08:51:56;;;;;;;38.80;20.25;;;;;;;3.94;87.29;101361.72;4936677;28;20047;-47
2020/12/17 08:54:35;;;;;;;37.97;19.83;;;;;;;3.99;88.11;101360.34;4937242;28;20086;-45
2020/12/17 08:57:11;;;;;;;38.47;19.38;;;;;;;3.98;87.31;101362.03;4934805;28;20071;-48
2020/12/17 08:59:39;;;;;;;46.85;22.25;;;;;;;4.14;86.45;101371.44;4935439;28;20561;-47
2020/12/17 09:02:06;;;;;;;37.13;20.10;;;;;;;4.12;86.46;101375.56;4937742;28;20051;-47
2020/12/17 09:04:33;;;;;;;37.63;19.52;;;;;;;4.20;85.48;101374.34;4933775;28;20521;-44
2020/12/17 09:07:01;;;;;;;36.70;19.65;;;;;;;4.33;84.86;101381.06;4936207;28;20055;-47
2020/12/17 09:09:29;;;;;;;38.13;19.92;;;;;;;4.30;85.66;101381.78;4936522;28;20417;-47
2020/12/17 09:12:02;;;;;;;39.47;20.20;;;;;;;4.44;84.91;101376.66;4936988;28;20048;-49
2020/12/17 09:14:30;;;;;;;36.33;18.65;;;;;;;4.37;85.08;101377.94;4935844;28;20052;-44
2020/12/17 09:17:15;;;;;;;37.60;19.10;;;;;;;4.51;84.06;101378.78;4934552;29;20462;-45
2020/12/17 09:19:46;;;;;;;36.97;17.57;;;;;;;4.51;84.42;101381.31;4930544;28;20114;-49
2020/12/17 09:22:22;;;;;;;33.92;19.13;;;;;;;4.48;84.63;101373.50;4937456;28;20086;-45
2020/12/17 09:24:54;;;;;;;;;;;;;;;4.36;84.70;101371.13;4931736;28;20533;-45
2020/12/17 09:27:23;;;;;;;33.38;18.65;;;;;;;4.42;84.85;101371.47;4931310;28;20373;-45
2020/12/17 09:30:11;;;;;;;35.88;17.83;;;;;;;4.54;84.64;101368.84;4934901;28;20098;-47
2020/12/17 09:32:41;;;;;;;37.88;19.80;;;;;;;4.53;85.34;101359.44;4934252;28;20050;-44
2020/12/17 09:35:12;;;;;;;37.00;18.88;;;;;;;4.64;83.66;101361.00;4936741;28;20071;-44
2020/12/17 09:37:55;;;;;;;38.08;19.70;;;;;;;4.62;83.55;101361.66;4934105;28;20047;-48
2020/12/17 09:40:23;;;;;;;36.50;19.08;;;;;;;4.69;84.27;101364.69;4933308;28;20083;-50
2020/12/17 09:43:08;;;;;;;32.85;18.52;;;;;;;4.45;84.86;101376.75;4934857;28;20058;-46
2020/12/17 09:45:42;;;;;;;33.17;18.67;;;;;;;4.88;83.48;101369.19;4933837;28;20051;-46
2020/12/17 09:48:24;;;;;;;33.20;18.98;;;;;;;4.89;82.39;101367.53;4936573;28;20059;-44
2020/12/17 09:50:55;;;;;;;33.58;19.27;;;;;;;5.08;82.22;101377.97;4931554;28;20082;-51
2020/12/17 09:53:32;;;;;;;36.70;18.35;;;;;;;5.22;82.13;101361.91;4933304;28;20051;-48
2020/12/17 09:55:59;;;;;;;34.67;18.95;;;;;;;5.51;80.94;101355.06;4935690;28;20048;-47
2020/12/17 09:58:26;;;;;;;35.53;19.33;;;;;;;5.42;81.05;101360.50;4935198;28;20043;-49
2020/12/17 10:00:52;;;;;;;35.83;20.33;;;;;;;5.71;80.09;101357.06;4934895;28;20047;-46
2020/12/17 10:03:19;;;;;;;34.70;19.77;;;;;;;6.06;78.58;101358.16;4936209;28;20047;-47
2020/12/17 10:05:45;;;;;;;35.40;19.17;;;;;;;6.34;78.14;101356.31;4933533;28;20048;-48
2020/12/17 10:08:12;;;;;;;33.08;19.38;;;;;;;6.67;75.77;101355.47;4939941;28;20047;-47
2020/12/17 10:10:38;;;;;;;30.55;18.85;;;;;;;6.40;76.26;101354.88;4937989;28;20098;-48
2020/12/17 10:13:06;;;;;;;35.83;19.70;;;;;;;6.55;76.66;101346.38;4940398;28;20048;-45
2020/12/17 10:15:33;;;;;;;33.10;18.65;;;;;;;6.37;76.42;101338.66;4937082;29;20048;-48
2020/12/17 10:18:00;;;;;;;33.60;19.65;;;;;;;6.25;75.85;101350.75;4939237;28;20044;-47
2020/12/17 10:20:26;;;;;;;32.88;19.10;;;;;;;5.92;78.05;101348.91;4934239;28;20105;-45
2020/12/17 10:22:53;;;;;;;33.00;19.30;;;;;;;6.45;76.90;101344.16;4938529;28;20343;-46
2020/12/17 10:25:23;;;;;;;31.48;17.77;;;;;;;6.15;77.41;101334.88;4939581;28;20394;-46
2020/12/17 10:27:55;;;;;;;32.97;18.80;;;;;;;6.41;77.09;101336.28;4937631;28;20058;-46
2020/12/17 10:30:21;;;;;;;32.13;18.50;;;;;;;6.29;76.05;101347.56;4936926;28;20105;-50
2020/12/17 10:32:48;;;;;;;31.38;18.38;;;;;;;6.45;75.77;101340.75;4937951;28;20126;-49
2020/12/17 10:35:14;;;;;;;32.92;18.02;;;;;;;6.62;75.19;101343.38;4939910;28;20429;-46
2020/12/17 10:37:42;;;;;;;32.28;18.80;;;;;;;6.62;76.17;101339.97;4937482;28;20051;-50
2020/12/17 10:40:10;;;;;;;32.92;18.73;;;;;;;6.91;74.26;101330.38;4940600;28;20051;-49
2020/12/17 10:42:44;;;;;;;31.45;16.92;;;;;;;6.71;74.18;101331.94;4937991;28;20048;-45
2020/12/17 10:45:11;;;;;;;31.08;18.35;;;;;;;6.77;74.16;101333.09;4940255;28;20706;-46
2020/12/17 10:47:38;;;;;;;31.38;18.55;;;;;;;6.43;75.09;101325.41;4938050;28;20132;-44
2020/12/17 10:50:06;;;;;;;32.38;17.38;;;;;;;6.60;74.80;101327.13;4939348;28;20377;-46
2020/12/17 10:52:33;;;;;;;29.20;17.80;;;;;;;6.44;74.75;101324.59;4938029;28;20114;-46
2020/12/17 10:54:59;;;;;;;32.80;19.15;;;;;;;6.57;74.65;101329.53;4938975;28;20474;-47
2020/12/17 10:57:26;;;;;;;34.53;18.50;;;;;;;6.26;75.85;101321.97;4938244;28;20122;-44
2020/12/17 10:59:52;;;;;;;32.15;18.40;;;;;;;6.62;75.18;101330.66;4937487;28;20063;-45
2020/12/17 11:02:18;;;;;;;30.67;18.27;;;;;;;6.74;74.62;101330.38;4939619;28;20051;-45
2020/12/17 11:04:45;;;;;;;32.55;18.58;;;;;;;6.67;75.36;101323.25;4937295;28;20047;-46
2020/12/17 11:07:11;;;;;;;32.50;18.83;;;;;;;6.82;74.03;101320.63;4939210;28;20055;-45
2020/12/17 11:09:38;;;;;;;28.92;17.42;;;;;;;6.77;74.53;101325.47;4937367;28;20055;-43
2020/12/17 11:12:04;;;;;;;32.88;18.35;;;;;;;6.88;73.44;101326.88;4939093;28;20507;-46
2020/12/17 11:14:31;;;;;;;33.15;18.00;;;;;;;6.71;74.10;101329.38;4936740;29;20498;-45
2020/12/17 11:17:03;;;;;;;35.13;18.20;;;;;;;6.77;74.15;101335.66;4936993;28;20099;-49
2020/12/17 11:19:30;;;;;;;33.17;17.83;;;;;;;6.94;73.15;101325.47;4936569;28;20120;-46
2020/12/17 11:22:01;;;;;;;30.98;17.70;;;;;;;6.78;73.77;101317.03;4937979;28;20051;-45
2020/12/17 11:24:27;;;;;;;33.53;17.70;;;;;;;7.27;72.32;101332.22;4938235;28;20047;-47
2020/12/17 11:26:54;;;;;;;32.35;18.33;;;;;;;7.23;72.05;101326.91;4937825;28;20450;-48
2020/12/17 11:29:21;;;;;;;30.73;16.98;;;;;;;6.90;73.83;101319.34;4939115;28;20063;-44